TimeEDT,TemperatureF,Dew PointF,Humidity,Sea Level PressureIn,VisibilityMPH,Wind Direction,Wind SpeedMPH,Gust SpeedMPH,PrecipitationIn,Events,Conditions,WindDirDegrees,DateUTC
12:54 AM,41.0,23.0,49,29.78,10.0,NNW,19.6,32.2,N/A,,Overcast,330,2012-10-30 04:54:00
1:54 AM,41.0,24.1,51,29.75,10.0,NNW,24.2,36.8,N/A,,Overcast,330,2012-10-30 05:54:00
2:54 AM,41.0,25.0,53,29.71,10.0,NNW,24.2,34.5,N/A,,Overcast,330,2012-10-30 06:54:00
3:54 AM,37.9,28.0,68,29.68,4.0,NNW,26.5,40.3,0.00,Snow,Light Snow,330,2012-10-30 07:54:00
4:22 AM,35.6,28.4,75,29.67,5.0,NNW,24.2,33.4,0.01,Snow,Light Snow,330,2012-10-30 08:22:00
4:30 AM,37.4,28.4,70,29.66,5.0,NNW,19.6,38.0,0.01,Snow,Light Snow,330,2012-10-30 08:30:00
4:54 AM,36.0,30.0,79,29.67,6.0,NNW,21.9,39.1,0.01,Snow,Light Snow,330,2012-10-30 08:54:00
5:06 AM,35.6,30.2,81,29.64,6.0,NNW,20.7,35.7,0.00,Snow,Light Snow,330,2012-10-30 09:06:00
5:19 AM,35.6,30.2,81,29.64,10.0,NNW,16.1,35.7,0.01,Rain-Snow,Light Snow,330,2012-10-30 09:19:00
5:45 AM,37.4,28.4,70,29.63,10.0,NW,20.7,34.5,0.01,Rain,Light Rain,320,2012-10-30 09:45:00
5:54 AM,37.0,28.9,73,29.64,10.0,NNW,21.9,34.5,0.01,Rain,Light Rain,330,2012-10-30 09:54:00
6:19 AM,35.6,30.2,81,29.62,10.0,NNW,24.2,34.5,0.00,Rain,Light Rain,330,2012-10-30 10:19:00
6:54 AM,36.0,30.9,82,29.62,10.0,NW,19.6,31.1,0.01,Rain,Light Rain,320,2012-10-30 10:54:00
7:17 AM,35.6,30.2,81,29.60,8.0,NW,24.2,33.4,0.02,Rain,Light Rain,320,2012-10-30 11:17:00
7:37 AM,35.6,30.2,81,29.59,8.0,NW,23.0,34.5,0.05,Rain,Light Rain,320,2012-10-30 11:37:00
7:54 AM,36.0,32.0,86,29.60,8.0,NW,20.7,31.1,0.06,Rain,Light Rain,320,2012-10-30 11:54:00
8:44 AM,37.4,33.8,87,29.58,8.0,NNW,21.9,32.2,0.01,Rain,Light Rain,330,2012-10-30 12:44:00
8:54 AM,37.0,33.1,86,29.60,9.0,NNW,20.7,32.2,0.01,Rain,Light Rain,330,2012-10-30 12:54:00
9:54 AM,37.0,34.0,89,29.60,10.0,NNW,23.0,36.8,0.02,Rain,Light Rain,330,2012-10-30 13:54:00
10:54 AM,37.0,34.0,89,29.59,9.0,NW,19.6,31.1,0.06,Rain,Light Rain,320,2012-10-30 14:54:00
11:54 AM,37.9,35.1,89,29.59,8.0,NNW,19.6,29.9,0.03,Rain,Light Rain,330,2012-10-30 15:54:00
12:54 PM,39.0,36.0,89,29.59,7.0,NNW,19.6,28.8,0.02,Rain,Light Rain,330,2012-10-30 16:54:00
1:34 PM,39.2,35.6,87,29.57,6.0,NNW,18.4,24.2,0.02,Rain,Light Rain,330,2012-10-30 17:34:00
1:42 PM,39.2,37.4,93,29.57,7.0,NW,13.8,24.2,0.03,Rain,Light Rain,320,2012-10-30 17:42:00
1:54 PM,39.0,36.0,89,29.58,7.0,NW,17.3,28.8,0.03,Rain,Light Rain,320,2012-10-30 17:54:00
2:54 PM,39.0,37.0,93,29.58,10.0,NW,18.4,25.3,0.00,Rain,Light Rain,320,2012-10-30 18:54:00
3:54 PM,39.9,36.0,86,29.59,10.0,NW,16.1,26.5,0.01,,Overcast,320,2012-10-30 19:54:00
4:54 PM,41.0,36.0,82,29.60,10.0,NW,19.6,24.2,N/A,,Overcast,320,2012-10-30 20:54:00
5:54 PM,39.9,36.0,86,29.61,10.0,NW,18.4,28.8,N/A,,Overcast,320,2012-10-30 21:54:00
6:54 PM,39.9,36.0,86,29.63,10.0,NW,15.0,25.3,N/A,,Overcast,310,2012-10-30 22:54:00
7:54 PM,39.9,36.0,86,29.65,10.0,NW,16.1,23.0,N/A,,Overcast,320,2012-10-30 23:54:00
8:54 PM,39.9,36.0,86,29.66,10.0,NW,12.7,21.9,N/A,,Overcast,310,2012-10-31 00:54:00
9:54 PM,39.0,37.0,93,29.66,9.0,NW,15.0,21.9,N/A,,Overcast,320,2012-10-31 01:54:00
10:54 PM,39.0,36.0,89,29.65,10.0,NW,15.0,19.6,0.00,Rain,Light Rain,320,2012-10-31 02:54:00
11:54 PM,39.0,36.0,89,29.65,10.0,WNW,10.4,20.7,0.00,Rain,Light Rain,300,2012-10-31 03:54:00